Nearby METAR Reports

 

KMHT - Manchester, New Hampshire, USA
Distance from station: W 16mi, 26km
Updated: Thu, 26-Apr-2018 9:08am EDT
Light rain, Overcast
Light rain, Overcast
 Wind from W
Wind: W 3 mph , 6 km/h
Temperature: 54°F , 12°C
Dew Point: 52°F , 11°C
Humidity: 94%
Barometer: 29.57 inHg , 1001.4 hPa
Summary: Light rain
Clouds: Overcast
Visibility: 10 miles , 16 km
Cloud details: Overcast 500 ft
2018/04/26 13:08 KMHT 261308Z 28003KT 10SM -RA OVC005 12/11 A2957 RMK AO2 P0000 T01220106
KPSM - Portsmouth/Pease, New Hampshire, USA
Distance from station: ENE 17mi, 27km
Updated: Thu, 26-Apr-2018 8:56am EDT
Light rain, Mist, Overcast
Light rain, Mist, Overcast
 Wind from NNW
Wind: NNW 5 mph , 7 km/h
Temperature: 50°F , 10°C
Wind Chill: 48°F , 9°C
Dew Point: 50°F , 10°C
Humidity: 100%
Barometer: 29.55 inHg , 1000.7 hPa
Summary: Light rain, Mist
Clouds: Overcast
Visibility: 3 miles , 5 km
Cloud details: Mostly cloudy 300 ft
Overcast 1500 ft
2018/04/26 12:56 KPSM 261256Z 34004KT 3SM -RA BR BKN003 OVC015 10/10 A2955 RMK AO2A SLP009 P0008 T00970097
 
KASH - Nashua/Boire Fld, New Hampshire, USA
Distance from station: WSW 24mi, 38km
Updated: Thu, 26-Apr-2018 8:56am EDT
Overcast
Overcast
 Wind from WNW
Wind: WNW 7 mph , 11 km/h
Temperature: 52°F , 11°C
Dew Point: 52°F , 11°C
Humidity: 100%
Barometer: 29.59 inHg , 1002 hPa
Clouds: Overcast
Visibility: 9 miles , 14 km
Cloud details: Overcast 600 ft
2018/04/26 12:56 KASH 261256Z 29006KT 9SM OVC006 11/11 A2959 RMK AO2 RAE40 CIG 003V009 SLP030 P0001 T01110111
KDAW - Rochester, New Hampshire, USA
Distance from station: NNE 24mi, 39km
Updated: Thu, 26-Apr-2018 9:05am EDT
Overcast
Overcast
 Wind from N
Wind: N 5 mph , 7 km/h
Temperature: 48°F , 9°C
Wind Chill: 46°F , 8°C
Dew Point: 48°F , 9°C
Humidity: 100%
Barometer: 29.56 inHg , 1001 hPa
Clouds: Overcast
Visibility: 10 miles , 16 km
Cloud details: Few Clouds 400 ft
Mostly cloudy 1200 ft
Overcast 3300 ft
2018/04/26 13:05 KDAW 261305Z AUTO 35004KT 10SM FEW004 BKN012 OVC033 09/09 A2956 RMK AO2 RAE04 P0000 T00940094